Arctic - Eastern Arctic: Past 24 Hour Conditions

 

Kugaaruk Airport

12:00 AM MDT 23 October 2014
This table is a summary of hourly weather conditions for the past 24 hours.
Date / Time
(MDT)
Wind(knots) Conditions Visibility(km) Pressure(kPa) Air tempC) Relative humidity(%) Dew pointC) Wind Chill
23 October 2014
0:00 SW 11 N/A N/A 102.4 -21 78 -24 -32
22 October 2014
23:00 SW 16 N/A N/A 102.4 -21 78 -24 -33
22:00 SW 13 N/A N/A 102.3 -21 76 -24 -33
21:00 SW 17 N/A N/A 102.3 -20 79 -23 -33
20:00 WSW 12 N/A N/A 102.2 -22 80 -24 -33
19:00 SW 9 N/A N/A 102.2 -20 80 -23 -30
18:00 S 6 N/A N/A 102.2 -20 80 -23 -28
17:00 WSW 10 Ice Crystals 24 102.2 -19 79 -22 -29
16:00 WNW 10 Ice Crystals 24 102.1 -18 79 -20 -27
15:00 W 10 Ice Crystals 24 102.0 -18 79 -21 -27
14:00 NW 3 Ice Crystals 24 102.0 -18 79 -21 -22
13:00 S 4 Ice Crystals 24 101.9 -17 81 -19 -22
12:00 N 4 Ice Crystals 13 101.8 -18 84 -20 -23
11:00 ESE 2 Ice Crystals 24 101.7 -17 84 -19 -20
10:00 ENE 4 Ice Crystals 13 101.6 -16 85 -18 -22
9:00 calm Ice Crystals 19 101.5 -17 84 -19 *
8:00 E 10 Ice Crystals 24 101.4 -18 84 -20 -27
7:00 NE 9 Ice Crystals 24 101.3 -17 85 -19 -26
6:00 ENE 10 N/A N/A 101.1 -16 78 -19 -25
5:00 N/A N/A N/A N/A N/A N/A N/A *
4:00 NNE 17 gust 22 N/A N/A 100.9 -14 86 -16 -25
3:00 N 19 N/A N/A 100.8 -12 87 -14 -23
2:00 NNE 17 N/A N/A 100.6 -10 87 -12 -20
1:00 ENE 13 N/A N/A 100.6 -11 87 -13 -20
0:00 NE 14 N/A N/A 100.5 -12 85 -14 -21
 
Map of Arctic - Eastern Arctic marine weather areas Baker Lake Airport Chesterfield Inlet Airport Coral Harbour Airport Gjoa Haven Airport Kugaaruk Airport Rankin Inlet Airport Shepherd Bay Airport Whale Cove Airport Arctic Bay Brevoort Island Qikiqtarjuaq Airport Cape Dorset Airport Cape Dyer Cape Hooper Clyde Airport Grise Fiord Airport Hall Beach Airport Igloolik Airport Iqaluit Airport Longstaff Bluff Pangnirtung Airport Pond Inlet Airport Repulse Bay Airport Resolute Airport Resolution Island Rowley Island Airport Taloyoak Airport Wager Bay Akulivik Airport Ivujivik Airport Puvirnituq Airport Kangiqsujuaq Airport Kangirsuk Airport Quaqtaq Airport Tasiujaq Airport Cape Kakkiviak Cape Kiglapait Nain Airport Saglek Cape Mercy Kimmirut Airport Aupaluk Airport Salluit Airport Kangiqsualujjuaq Airport Fort Ross
Legend: buoyBuoy land stationLand Station